createdAt,value
2022-08-29T00:04:26.167Z,17.74
2022-08-29T00:14:29.162Z,17.68
2022-08-29T00:24:33.283Z,17.69
2022-08-29T00:34:36.012Z,17.72
2022-08-29T00:44:40.216Z,17.58
2022-08-29T00:54:45.979Z,17.68
2022-08-29T01:04:50.011Z,17.70
2022-08-29T01:14:56.335Z,17.74
2022-08-29T01:25:04.239Z,17.75
2022-08-29T01:35:08.590Z,17.83
2022-08-29T01:45:13.193Z,17.83
2022-08-29T01:55:15.885Z,17.70
2022-08-29T02:05:22.972Z,17.54
2022-08-29T02:15:25.859Z,17.40
2022-08-29T02:25:47.457Z,17.33
2022-08-29T02:35:50.518Z,17.21
2022-08-29T02:45:54.765Z,17.06
2022-08-29T02:55:57.844Z,16.98
2022-08-29T03:06:01.879Z,17.05
2022-08-29T03:16:05.350Z,17.11
2022-08-29T03:26:09.488Z,17.11
2022-08-29T03:36:14.205Z,17.16
2022-08-29T03:46:18.890Z,17.09
2022-08-29T03:56:21.670Z,17.07
2022-08-29T04:06:28.138Z,17.08
2022-08-29T04:16:31.312Z,17.18
2022-08-29T04:26:37.489Z,17.11
2022-08-29T04:36:42.759Z,17.17
2022-08-29T04:46:46.884Z,17.19
2022-08-29T04:56:49.680Z,17.37
2022-08-29T05:06:55.554Z,17.43
2022-08-29T05:16:58.257Z,17.56
2022-08-29T05:27:02.314Z,17.74
2022-08-29T05:37:07.714Z,17.85
2022-08-29T05:47:14.166Z,18.08
2022-08-29T05:57:21.036Z,18.33
2022-08-29T06:07:25.082Z,18.46
2022-08-29T06:17:28.398Z,18.62
2022-08-29T06:27:32.778Z,18.62
2022-08-29T06:37:35.452Z,18.77
2022-08-29T06:47:39.516Z,19.00
2022-08-29T06:57:45.321Z,19.27
2022-08-29T07:07:50.045Z,19.72
2022-08-29T07:17:55.493Z,20.44
2022-08-29T07:28:03.579Z,20.77
2022-08-29T07:38:07.129Z,20.95
2022-08-29T07:48:11.212Z,20.79
2022-08-29T07:58:14.173Z,20.40
2022-08-29T08:08:18.526Z,20.32
2022-08-29T08:18:21.354Z,20.26
2022-08-29T08:28:25.502Z,20.49
2022-08-29T08:38:28.216Z,21.03
2022-08-29T08:48:38.045Z,21.35
2022-08-29T08:58:49.961Z,21.75
2022-08-29T09:09:01.700Z,22.20
2022-08-29T09:19:07.000Z,22.11
2022-08-29T09:29:13.768Z,21.91
2022-08-29T09:39:20.938Z,21.90
2022-08-29T09:49:25.024Z,22.16
2022-08-29T09:59:30.976Z,22.78
2022-08-29T10:09:37.301Z,23.42
2022-08-29T10:19:40.203Z,22.81
2022-08-29T10:29:59.395Z,22.42
2022-08-29T10:40:10.636Z,23.01
2022-08-29T10:50:46.159Z,23.37
2022-08-29T11:00:55.229Z,23.71
2022-08-29T11:10:59.370Z,24.25
2022-08-29T11:21:13.176Z,24.87
2022-08-29T11:31:22.881Z,25.76
2022-08-29T11:41:29.977Z,28.21
2022-08-29T11:51:40.326Z,29.01
2022-08-29T12:02:02.093Z,27.32
2022-08-29T12:12:35.991Z,25.72
2022-08-29T12:22:54.918Z,28.77
2022-08-29T12:33:09.023Z,26.91
2022-08-29T12:43:32.068Z,30.94
2022-08-29T12:53:36.831Z,29.68
2022-08-29T13:03:40.912Z,26.72
2022-08-29T13:13:43.616Z,26.05
2022-08-29T13:24:01.538Z,26.19
2022-08-29T13:34:17.563Z,26.09
2022-08-29T13:44:24.659Z,25.17
2022-08-29T13:54:31.041Z,25.05
2022-08-29T14:04:38.853Z,24.55
2022-08-29T14:14:43.623Z,24.31
2022-08-29T14:24:51.783Z,24.56
2022-08-29T14:34:54.530Z,24.56
2022-08-29T14:44:58.927Z,24.45
2022-08-29T14:55:01.953Z,25.21
2022-08-29T15:05:06.979Z,24.80
2022-08-29T15:15:10.624Z,24.77
2022-08-29T15:25:14.739Z,24.56
2022-08-29T15:35:17.698Z,24.26
2022-08-29T15:45:22.792Z,23.88
2022-08-29T15:55:25.744Z,23.67
2022-08-29T16:05:30.326Z,23.35
2022-08-29T16:15:33.937Z,23.01
2022-08-29T16:25:38.430Z,22.80
2022-08-29T16:35:41.095Z,22.61
2022-08-29T16:45:45.279Z,22.72
2022-08-29T16:55:48.201Z,22.60
2022-08-29T17:05:52.393Z,22.53
2022-08-29T17:15:54.532Z,22.17
2022-08-29T17:26:01.374Z,22.07
2022-08-29T17:36:06.620Z,21.77
2022-08-29T17:46:11.250Z,21.59
2022-08-29T17:56:15.984Z,21.37
2022-08-29T18:06:21.363Z,21.15
2022-08-29T18:16:24.421Z,20.93
2022-08-29T18:26:29.231Z,20.72
2022-08-29T18:36:33.294Z,20.42
2022-08-29T18:46:40.836Z,20.15
2022-08-29T18:56:43.563Z,20.06
2022-08-29T19:06:47.864Z,19.97
2022-08-29T19:16:50.698Z,19.81
2022-08-29T19:26:54.882Z,19.54
2022-08-29T19:36:57.669Z,19.35
2022-08-29T19:47:01.712Z,19.17
2022-08-29T19:57:04.996Z,18.92
2022-08-29T20:07:09.302Z,18.73
2022-08-29T20:17:12.635Z,18.62
2022-08-29T20:27:16.923Z,18.54
2022-08-29T20:37:22.697Z,18.43
2022-08-29T20:47:27.176Z,18.35
2022-08-29T20:57:29.844Z,18.18
2022-08-29T21:07:34.158Z,18.03
2022-08-29T21:17:36.910Z,17.88
2022-08-29T21:27:41.009Z,17.77
2022-08-29T21:37:44.015Z,17.64
2022-08-29T21:47:50.490Z,17.56
2022-08-29T21:57:52.141Z,17.53
2022-08-29T22:07:56.847Z,17.34
2022-08-29T22:18:00.724Z,17.36
2022-08-29T22:28:04.974Z,17.15
2022-08-29T22:38:07.669Z,16.98
2022-08-29T22:48:13.230Z,16.78
2022-08-29T22:58:17.489Z,16.73
2022-08-29T23:08:22.045Z,16.72
2022-08-29T23:18:24.760Z,16.63
2022-08-29T23:28:28.809Z,16.36
2022-08-29T23:38:31.511Z,16.21
2022-08-29T23:48:35.681Z,16.26
2022-08-29T23:58:38.381Z,16.18
